Time;durP1;ratioP1;P1;durP2;ratioP2;P2;SDS_P1;SDS_P2;PMS_P1;PMS_P2;Temp;Humidity;BMP_temperature;BMP_pressure;BME280_temperature;BME280_humidity;BME280_pressure;Samples;Min_cycle;Max_cycle;Signal;HPM_P1;HPM_P2
2021/04/11 00:01:44;;;;;;;3.53;0.20;;;17.30;78.30;;;;;;5032152;28;20025;-69
2021/04/11 00:04:11;;;;;;;3.10;0.22;;;17.10;76.70;;;;;;5032252;28;20087;-70
2021/04/11 00:06:39;;;;;;;3.80;0.20;;;16.90;75.00;;;;;;5046742;28;20388;-70
2021/04/11 00:09:07;;;;;;;2.40;0.25;;;17.20;74.60;;;;;;5032280;28;20481;-70
2021/04/11 00:11:34;;;;;;;2.58;0.55;;;17.00;74.90;;;;;;5031348;28;20475;-70
2021/04/11 00:14:02;;;;;;;3.05;0.50;;;17.00;76.20;;;;;;5031854;28;20381;-70
2021/04/11 00:16:29;;;;;;;1.17;0.10;;;16.80;74.60;;;;;;5021869;28;20026;-69
2021/04/11 00:18:56;;;;;;;1.25;0.20;;;16.90;75.00;;;;;;5052323;28;20025;-70
2021/04/11 00:21:23;;;;;;;2.05;0.10;;;17.20;76.00;;;;;;5040365;28;20119;-70
2021/04/11 00:23:51;;;;;;;2.95;0.57;;;17.30;74.70;;;;;;5032236;28;20064;-70
2021/04/11 00:26:18;;;;;;;2.13;0.55;;;17.20;75.90;;;;;;5032638;28;20025;-70
2021/04/11 00:28:46;;;;;;;1.20;0.30;;;17.20;75.70;;;;;;5051103;28;20067;-70
2021/04/11 00:31:13;;;;;;;1.15;0.15;;;17.20;76.40;;;;;;5053101;28;20029;-71
2021/04/11 00:33:45;;;;;;;2.00;0.40;;;17.20;75.40;;;;;;5047315;28;20532;-69
2021/04/11 00:36:18;;;;;;;1.58;0.10;;;17.20;74.80;;;;;;5031978;28;20052;-70
2021/04/11 00:38:45;;;;;;;2.28;0.25;;;17.40;75.10;;;;;;5031685;28;20562;-70
2021/04/11 00:41:19;;;;;;;1.30;0.20;;;17.60;75.70;;;;;;5032748;28;20466;-69
2021/04/11 00:43:46;;;;;;;;;;;17.50;75.60;;;;;;5032687;28;20421;-69
2021/04/11 00:46:28;;;;;;;2.22;0.45;;;17.30;75.30;;;;;;5030528;28;19909;-71
2021/04/11 00:48:56;;;;;;;2.72;0.20;;;17.40;77.00;;;;;;5032731;28;20053;-70
2021/04/11 00:51:28;;;;;;;5.15;0.65;;;17.70;75.30;;;;;;5032129;28;20029;-70
2021/04/11 00:54:04;;;;;;;2.70;0.50;;;17.60;74.40;;;;;;5031261;28;20032;-70
2021/04/11 00:56:34;;;;;;;1.10;0.50;;;17.70;75.10;;;;;;5031652;28;20479;-69
2021/04/11 00:59:01;;;;;;;2.55;0.32;;;17.10;74.50;;;;;;5029780;28;20156;-71
2021/04/11 01:01:30;;;;;;;2.25;0.45;;;17.10;74.20;;;;;;5032522;28;20470;-70
2021/04/11 01:03:58;;;;;;;1.15;0.20;;;17.40;74.40;;;;;;5031458;28;20033;-69
2021/04/11 01:06:36;;;;;;;3.42;0.20;;;17.40;74.80;;;;;;5031755;28;20067;-70
2021/04/11 01:09:12;;;;;;;0.95;0.20;;;17.70;75.60;;;;;;5030434;28;20116;-70
2021/04/11 01:11:40;;;;;;;3.25;0.40;;;18.10;75.80;;;;;;5023330;28;20040;-70
2021/04/11 01:14:09;;;;;;;1.50;0.20;;;18.10;74.10;;;;;;5029582;28;20029;-69
2021/04/11 01:16:38;;;;;;;1.77;0.20;;;17.40;75.40;;;;;;5032875;28;20033;-70
2021/04/11 01:19:13;;;;;;;1.65;0.20;;;17.30;76.20;;;;;;5031504;28;20026;-69
2021/04/11 01:21:47;;;;;;;1.10;0.20;;;17.60;75.20;;;;;;5029882;28;20520;-69
2021/04/11 01:24:42;;;;;;;0.83;0.20;;;17.90;74.50;;;;;;5032473;28;20567;-68
2021/04/11 01:27:13;;;;;;;2.90;0.30;;;17.80;72.90;;;;;;5032599;28;20114;-69
2021/04/11 01:29:41;;;;;;;0.70;0.10;;;17.50;72.70;;;;;;5032001;28;20100;-68
2021/04/11 01:32:12;;;;;;;1.83;0.40;;;17.80;72.60;;;;;;5032447;28;20029;-69
2021/04/11 01:34:41;;;;;;;5.40;0.43;;;17.60;71.90;;;;;;5031287;28;20022;-70
2021/04/11 01:37:11;;;;;;;2.67;0.20;;;17.40;71.70;;;;;;5034226;28;20470;-70
2021/04/11 01:39:46;;;;;;;2.22;0.40;;;17.70;72.40;;;;;;5034961;28;20501;-69
2021/04/11 01:42:15;;;;;;;1.85;0.20;;;17.50;72.00;;;;;;5035122;28;20029;-69
2021/04/11 01:44:46;;;;;;;0.85;0.20;;;17.40;71.50;;;;;;5036023;28;20064;-70
2021/04/11 01:47:14;;;;;;;2.42;0.20;;;17.60;71.60;;;;;;5034127;28;20080;-70
2021/04/11 01:49:46;;;;;;;1.27;0.10;;;17.80;72.00;;;;;;5033983;28;20211;-70
2021/04/11 01:52:28;;;;;;;1.27;0.40;;;17.90;72.20;;;;;;5036036;28;20036;-69
2021/04/11 01:54:56;;;;;;;3.47;0.30;;;17.80;71.00;;;;;;5043686;28;20017;-71
2021/04/11 01:57:30;;;;;;;1.92;0.20;;;17.80;71.70;;;;;;5036574;28;20052;-70
2021/04/11 02:00:22;;;;;;;2.65;0.20;;;18.10;71.20;;;;;;5047128;28;20107;-70
2021/04/11 02:02:55;;;;;;;1.05;0.20;;;18.20;71.90;;;;;;5036683;28;20026;-70
2021/04/11 02:05:22;;;;;;;2.40;0.73;;;18.10;72.40;;;;;;5047081;28;20021;-71
2021/04/11 02:07:52;;;;;;;4.00;0.50;;;18.50;71.00;;;;;;5035590;28;20033;-71
2021/04/11 02:10:26;;;;;;;1.80;0.20;;;18.10;70.20;;;;;;5034505;28;20091;-70
2021/04/11 02:12:54;;;;;;;1.38;0.28;;;18.00;70.80;;;;;;5042817;28;20165;-70
2021/04/11 02:15:27;;;;;;;1.60;0.20;;;18.00;71.00;;;;;;5033518;28;20139;-70
2021/04/11 02:17:55;;;;;;;0.77;0.10;;;18.00;71.20;;;;;;5035525;28;20056;-71
2021/04/11 02:20:27;;;;;;;1.48;0.13;;;18.30;70.60;;;;;;5033572;28;20509;-70
2021/04/11 02:22:55;;;;;;;2.15;0.30;;;17.80;71.30;;;;;;5034408;28;20045;-69
2021/04/11 02:25:27;;;;;;;0.85;0.20;;;18.10;72.40;;;;;;5034570;28;20021;-70
2021/04/11 02:27:55;;;;;;;1.67;0.15;;;18.30;72.20;;;;;;5032972;28;20056;-69
2021/04/11 02:30:25;;;;;;;4.22;0.20;;;18.10;71.80;;;;;;5032585;28;20117;-69
2021/04/11 02:32:55;;;;;;;1.38;0.50;;;18.10;72.40;;;;;;5017315;28;20029;-70
2021/04/11 02:35:26;;;;;;;1.30;0.20;;;18.20;71.70;;;;;;5031934;28;20087;-69
2021/04/11 02:37:58;;;;;;;1.88;0.30;;;18.20;71.90;;;;;;5032984;28;20021;-69
2021/04/11 02:40:33;;;;;;;1.33;0.40;;;17.80;71.80;;;;;;5028796;28;20159;-70
2021/04/11 02:43:02;;;;;;;2.75;0.43;;;18.10;72.40;;;;;;5033896;28;20597;-69
2021/04/11 02:45:32;;;;;;;1.10;0.30;;;18.30;71.90;;;;;;5034984;28;20017;-69
2021/04/11 02:48:00;;;;;;;1.92;0.40;;;18.00;72.00;;;;;;5032720;28;20087;-70
2021/04/11 02:50:31;;;;;;;1.33;0.30;;;18.00;73.10;;;;;;5034411;28;20040;-70
2021/04/11 02:53:14;;;;;;;1.25;0.57;;;18.30;72.30;;;;;;5033559;28;20018;-69
2021/04/11 02:55:43;;;;;;;2.60;1.20;;;18.70;71.50;;;;;;5033557;28;20060;-71
2021/04/11 02:58:12;;;;;;;2.40;0.80;;;18.30;71.40;;;;;;5032656;28;20470;-70
2021/04/11 03:00:49;;;;;;;2.95;0.68;;;18.40;70.60;;;;;;5032534;28;20076;-70
2021/04/11 03:03:18;;;;;;;1.95;0.52;;;18.20;71.50;;;;;;5027015;28;20402;-70
2021/04/11 03:05:45;;;;;;;0.63;0.20;;;18.40;71.30;;;;;;5034295;28;20377;-70
2021/04/11 03:08:16;;;;;;;3.00;0.40;;;18.20;72.40;;;;;;5034672;28;20072;-70
2021/04/11 03:11:06;;;;;;;2.83;0.38;;;18.20;71.20;;;;;;5034082;28;20025;-69
2021/04/11 03:13:35;;;;;;;3.95;0.43;;;18.30;71.30;;;;;;5032212;28;20038;-70
2021/04/11 03:16:02;;;;;;;3.33;0.70;;;17.90;69.40;;;;;;5032021;28;20025;-68
2021/04/11 03:18:30;;;;;;;2.88;0.90;;;18.20;71.50;;;;;;5034608;28;20033;-70
2021/04/11 03:20:58;;;;;;;2.85;0.50;;;18.40;70.60;;;;;;5030154;28;20029;-70
2021/04/11 03:23:26;;;;;;;3.55;0.17;;;18.10;69.60;;;;;;5031163;28;20040;-69
2021/04/11 03:26:12;;;;;;;0.85;0.40;;;18.20;69.60;;;;;;5033718;28;20052;-70
2021/04/11 03:28:49;;;;;;;2.17;0.20;;;18.20;70.20;;;;;;5031283;28;20104;-70
2021/04/11 03:31:29;;;;;;;1.15;0.20;;;18.40;71.60;;;;;;5032717;28;20036;-69
2021/04/11 03:34:01;;;;;;;2.60;0.15;;;18.60;70.40;;;;;;5031751;28;20029;-70
2021/04/11 03:36:29;;;;;;;0.60;0.10;;;18.60;71.60;;;;;;5033561;28;20029;-69
2021/04/11 03:38:58;;;;;;;1.70;0.20;;;18.50;70.40;;;;;;5033848;28;20108;-69
2021/04/11 03:41:33;;;;;;;1.77;0.40;;;18.50;70.10;;;;;;5032883;28;20075;-69
2021/04/11 03:44:10;;;;;;;1.70;0.32;;;18.20;70.30;;;;;;5033306;28;20030;-71
2021/04/11 03:47:09;;;;;;;4.63;0.63;;;18.30;70.30;;;;;;5021415;28;20069;-69
2021/04/11 03:49:48;;;;;;;1.48;0.30;;;18.40;69.30;;;;;;5031807;28;20013;-71
2021/04/11 03:52:31;;;;;;;4.50;0.30;;;18.50;68.40;;;;;;5029685;28;20021;-70
2021/04/11 03:55:04;;;;;;;0.93;0.20;;;17.90;67.30;;;;;;5032535;28;20437;-70
2021/04/11 03:57:51;;;;;;;1.08;0.10;;;18.30;68.00;;;;;;5033084;28;20036;-70
2021/04/11 04:00:31;;;;;;;1.50;0.10;;;18.60;67.60;;;;;;5031076;28;20030;-69
2021/04/11 04:03:14;;;;;;;2.65;0.40;;;18.30;67.50;;;;;;5031023;28;20565;-69
2021/04/11 04:05:42;;;;;;;2.22;0.30;;;18.20;68.30;;;;;;5031304;28;20022;-69
2021/04/11 04:08:09;;;;;;;2.95;0.73;;;18.10;68.70;;;;;;5026740;28;20022;-68
2021/04/11 04:11:03;;;;;;;2.75;0.10;;;18.20;69.00;;;;;;5031633;28;20057;-69
2021/04/11 04:13:52;;;;;;;1.08;0.17;;;18.20;67.70;;;;;;5027226;28;20584;-70
2021/04/11 04:16:32;;;;;;;0.65;0.20;;;18.20;67.90;;;;;;5023764;28;20022;-69
2021/04/11 04:19:36;;;;;;;1.40;0.40;;;18.20;68.80;;;;;;5017429;28;20022;-70
2021/04/11 04:23:11;;;;;;;3.30;0.43;;;18.40;68.20;;;;;;5012101;28;20108;-68
2021/04/11 04:25:50;;;;;;;0.98;0.40;;;18.30;68.00;;;;;;4957012;28;20124;-68
2021/04/11 04:28:30;;;;;;;4.13;1.02;;;18.20;69.40;;;;;;5009702;28;20033;-69
2021/04/11 04:31:32;;;;;;;2.05;0.30;;;18.20;67.90;;;;;;5025299;28;20044;-69
2021/04/11 04:33:59;;;;;;;3.38;0.70;;;18.10;69.00;;;;;;5029284;28;20049;-69
2021/04/11 04:36:36;;;;;;;1.92;0.43;;;18.10;68.60;;;;;;5031119;28;20033;-70
2021/04/11 04:39:14;;;;;;;0.75;0.20;;;18.00;68.30;;;;;;5025125;28;20536;-68
2021/04/11 04:41:45;;;;;;;2.60;0.30;;;18.10;67.70;;;;;;5023979;28;20033;-69
2021/04/11 04:44:38;;;;;;;1.95;0.20;;;18.00;68.20;;;;;;5030443;28;20432;-69
2021/04/11 04:47:34;;;;;;;1.85;0.10;;;17.80;67.70;;;;;;5030571;28;20021;-69
2021/04/11 04:50:22;;;;;;;2.05;0.47;;;17.80;67.80;;;;;;5030677;28;20565;-69
2021/04/11 04:52:58;;;;;;;0.73;0.40;;;17.70;67.90;;;;;;5028381;28;20482;-69
2021/04/11 04:55:26;;;;;;;1.05;0.60;;;17.70;68.80;;;;;;5029938;28;20052;-69
2021/04/11 04:57:55;;;;;;;2.65;0.90;;;17.80;68.90;;;;;;5030294;28;20041;-69
2021/04/11 05:00:24;;;;;;;7.15;3.42;;;17.60;68.40;;;;;;5031869;28;20017;-69
2021/04/11 05:02:57;;;;;;;4.22;0.52;;;17.70;68.50;;;;;;5030014;28;20079;-70
2021/04/11 05:05:27;;;;;;;2.85;0.28;;;17.70;67.30;;;;;;5031237;28;20033;-69
2021/04/11 05:08:06;;;;;;;0.68;0.13;;;17.70;67.60;;;;;;5030682;28;20065;-69
2021/04/11 05:10:53;;;;;;;2.05;0.20;;;17.60;67.90;;;;;;5031618;28;20029;-70
2021/04/11 05:13:24;;;;;;;1.23;0.17;;;17.70;68.70;;;;;;5029497;28;20026;-68
2021/04/11 05:16:05;;;;;;;1.70;0.20;;;17.60;67.40;;;;;;5028525;28;20061;-69
2021/04/11 05:18:40;;;;;;;1.00;0.20;;;17.60;67.50;;;;;;5029424;28;20083;-68
2021/04/11 05:21:25;;;;;;;1.25;0.20;;;17.60;68.80;;;;;;5031340;28;20065;-68
2021/04/11 05:24:01;;;;;;;1.67;0.43;;;17.80;69.20;;;;;;5029484;28;20034;-67
2021/04/11 05:26:49;;;;;;;0.82;0.17;;;17.80;68.80;;;;;;5031970;28;20049;-69
2021/04/11 05:29:59;;;;;;;0.30;0.10;;;17.80;68.90;;;;;;5031417;28;20072;-68
2021/04/11 05:32:27;;;;;;;1.60;0.20;;;17.70;68.10;;;;;;4985101;28;20029;-68
2021/04/11 05:34:57;;;;;;;0.93;0.10;;;17.60;69.10;;;;;;4994795;28;20065;-69
2021/04/11 05:37:29;;;;;;;2.38;0.50;;;17.50;68.90;;;;;;5018419;28;20045;-69
2021/04/11 05:40:15;;;;;;;1.38;0.20;;;17.50;68.90;;;;;;5032372;28;20022;-69
2021/04/11 05:43:04;;;;;;;2.42;0.22;;;17.40;69.00;;;;;;5029022;28;20033;-69
2021/04/11 05:45:44;;;;;;;1.23;0.50;;;17.50;69.70;;;;;;5029595;28;20021;-69
2021/04/11 05:48:20;;;;;;;1.20;0.17;;;17.50;68.50;;;;;;5030138;28;20029;-69
2021/04/11 05:51:10;;;;;;;0.73;0.20;;;17.40;68.50;;;;;;5031641;28;20032;-69
2021/04/11 05:53:52;;;;;;;1.05;0.20;;;17.50;68.20;;;;;;5029292;28;20060;-68
2021/04/11 05:56:49;;;;;;;1.20;0.45;;;17.40;68.00;;;;;;5029190;28;20029;-68
2021/04/11 05:59:31;;;;;;;7.28;1.25;;;17.30;68.90;;;;;;5027235;28;20032;-68
2021/04/11 06:02:01;;;;;;;1.13;0.28;;;17.30;68.40;;;;;;5029849;28;20017;-69
2021/04/11 06:04:55;;;;;;;0.77;0.40;;;17.30;67.50;;;;;;5024756;28;20113;-69
2021/04/11 06:07:34;;;;;;;4.20;0.63;;;17.30;68.10;;;;;;5020770;28;20021;-70
2021/04/11 06:10:06;;;;;;;1.50;0.30;;;17.40;69.00;;;;;;5026965;28;20110;-70
2021/04/11 06:12:57;;;;;;;1.08;0.28;;;17.20;69.20;;;;;;5018151;28;20104;-68
2021/04/11 06:15:36;;;;;;;1.35;0.35;;;17.30;68.70;;;;;;5024192;28;20108;-68
2021/04/11 06:18:09;;;;;;;1.70;0.38;;;17.30;69.10;;;;;;5027793;28;20039;-69
2021/04/11 06:20:37;;;;;;;0.50;0.10;;;17.30;67.00;;;;;;5029750;28;20021;-69
2021/04/11 06:23:28;;;;;;;3.03;0.30;;;17.30;68.30;;;;;;5031840;28;20049;-69
2021/04/11 06:26:20;;;;;;;2.55;0.20;;;17.20;68.30;;;;;;5034992;28;20474;-69
2021/04/11 06:29:10;;;;;;;1.05;0.40;;;17.00;68.80;;;;;;5031617;28;20036;-69
2021/04/11 06:31:57;;;;;;;2.05;0.20;;;17.10;69.60;;;;;;5016066;28;20685;-69
2021/04/11 06:34:31;;;;;;;1.25;0.22;;;17.10;69.40;;;;;;5026109;28;20499;-69
2021/04/11 06:37:04;;;;;;;0.38;0.10;;;17.00;69.20;;;;;;5026142;28;20026;-69
2021/04/11 06:39:40;;;;;;;0.75;0.20;;;16.90;69.60;;;;;;5025962;28;20025;-69
2021/04/11 06:42:31;;;;;;;1.35;0.22;;;16.90;69.40;;;;;;5029108;28;20080;-68
2021/04/11 06:45:19;;;;;;;2.83;0.50;;;16.80;69.60;;;;;;5023647;28;20033;-70
2021/04/11 06:47:58;;;;;;;1.88;0.35;;;16.90;70.00;;;;;;5031508;28;20034;-69
2021/04/11 06:51:10;;;;;;;0.63;0.15;;;16.80;69.00;;;;;;5013402;28;20044;-69
2021/04/11 06:53:50;;;;;;;3.90;0.20;;;16.70;69.80;;;;;;5018238;28;20034;-70
2021/04/11 06:56:30;;;;;;;2.00;0.20;;;16.70;70.20;;;;;;5031825;28;20041;-70
2021/04/11 06:59:15;;;;;;;3.47;0.52;;;16.50;69.40;;;;;;5031764;28;20033;-70
2021/04/11 07:02:00;;;;;;;2.53;0.40;;;16.50;70.00;;;;;;5031107;28;20481;-69
2021/04/11 07:04:31;;;;;;;2.60;0.45;;;16.50;70.40;;;;;;5027439;28;20478;-69
2021/04/11 07:07:49;;;;;;;2.80;0.90;;;16.40;70.30;;;;;;5027882;28;20021;-69
2021/04/11 07:10:31;;;;;;;4.65;1.83;;;16.40;70.10;;;;;;5028550;28;20025;-69
2021/04/11 07:13:17;;;;;;;1.73;0.50;;;16.30;71.30;;;;;;5029589;28;20546;-68
2021/04/11 07:16:12;;;;;;;2.50;0.30;;;16.30;71.20;;;;;;5031342;28;20486;-70
2021/04/11 07:18:39;;;;;;;;;;;16.20;71.40;;;;;;5031905;28;20390;-69
2021/04/11 07:21:52;;;;;;;4.45;0.30;;;16.20;71.80;;;;;;5031234;28;19919;-69
2021/04/11 07:24:48;;;;;;;0.65;0.22;;;16.10;72.40;;;;;;5024540;28;20478;-69
2021/04/11 07:27:47;;;;;;;3.60;0.73;;;16.20;72.40;;;;;;5023190;28;20119;-69
2021/04/11 07:30:29;;;;;;;2.20;1.35;;;16.10;73.60;;;;;;5029045;28;20045;-69
2021/04/11 07:33:14;;;;;;;11.43;7.15;;;16.10;73.70;;;;;;5030592;28;20501;-68
2021/04/11 07:36:23;;;;;;;4.53;2.38;;;16.00;73.60;;;;;;5032189;28;20057;-69
2021/04/11 07:39:18;;;;;;;4.07;1.70;;;16.00;73.10;;;;;;5028893;28;20041;-69
2021/04/11 07:42:17;;;;;;;2.72;0.50;;;15.90;73.60;;;;;;5031494;28;20022;-69
2021/04/11 07:45:25;;;;;;;2.72;0.63;;;15.90;73.00;;;;;;5007719;28;20041;-69
2021/04/11 07:48:02;;;;;;;3.50;0.47;;;15.90;73.40;;;;;;5026309;28;20521;-69
2021/04/11 07:50:34;;;;;;;1.75;0.57;;;15.90;72.70;;;;;;5017703;28;20061;-68
2021/04/11 07:53:33;;;;;;;1.33;0.30;;;15.80;72.60;;;;;;5031454;28;20034;-69
2021/04/11 07:56:10;;;;;;;3.55;0.40;;;15.80;72.90;;;;;;5024417;28;20041;-69
2021/04/11 07:59:08;;;;;;;1.70;0.43;;;15.70;73.10;;;;;;5029977;28;20026;-69
2021/04/11 08:01:58;;;;;;;0.77;0.30;;;15.60;73.90;;;;;;5031213;28;20026;-69
2021/04/11 08:04:46;;;;;;;2.95;0.50;;;15.60;74.00;;;;;;5019861;28;20068;-69
2021/04/11 08:07:26;;;;;;;1.08;0.20;;;15.60;74.50;;;;;;5030651;28;20060;-69
2021/04/11 08:10:22;;;;;;;2.75;0.50;;;15.60;75.10;;;;;;5028350;28;20029;-68
2021/04/11 08:13:02;;;;;;;1.52;0.50;;;15.50;74.90;;;;;;5028700;28;20120;-69
2021/04/11 08:15:59;;;;;;;3.97;0.68;;;15.50;75.00;;;;;;5031058;28;20026;-69
2021/04/11 08:18:43;;;;;;;3.13;0.50;;;15.50;75.30;;;;;;5029820;28;20030;-68
2021/04/11 08:21:30;;;;;;;5.03;1.67;;;15.40;74.90;;;;;;5031444;28;20033;-68
2021/04/11 08:24:07;;;;;;;2.58;0.57;;;15.40;75.70;;;;;;5012841;28;20053;-69
2021/04/11 08:27:11;;;;;;;2.80;0.63;;;15.40;75.80;;;;;;5013265;28;20033;-68
2021/04/11 08:30:37;;;;;;;3.33;0.47;;;15.40;75.80;;;;;;5022362;28;20482;-68
2021/04/11 08:33:16;;;;;;;;;;;15.30;75.80;;;;;;5013021;28;20029;-68
2021/04/11 08:35:53;;;;;;;1.20;0.43;;;15.30;75.80;;;;;;5010490;28;19914;-68
2021/04/11 08:38:36;;;;;;;1.70;0.47;;;15.30;76.20;;;;;;5018685;28;20071;-68
2021/04/11 08:41:21;;;;;;;2.63;0.60;;;15.20;76.20;;;;;;5024115;28;20057;-69
2021/04/11 08:44:13;;;;;;;2.70;0.70;;;15.20;75.70;;;;;;5029439;28;20029;-69
2021/04/11 08:47:17;;;;;;;1.98;0.57;;;15.20;74.90;;;;;;5030129;28;20509;-68
2021/04/11 08:49:58;;;;;;;2.88;1.00;;;15.20;75.20;;;;;;5027525;28;20478;-68
2021/04/11 08:52:35;;;;;;;2.80;1.35;;;15.20;74.70;;;;;;5021736;28;20033;-69
2021/04/11 08:55:26;;;;;;;4.68;1.40;;;15.10;75.20;;;;;;5030849;28;20017;-68
2021/04/11 08:58:15;;;;;;;4.40;1.30;;;15.10;75.50;;;;;;5028948;28;20041;-69
2021/04/11 09:00:48;;;;;;;2.38;0.90;;;15.00;76.40;;;;;;5030990;28;20341;-69
2021/04/11 09:03:42;;;;;;;3.00;0.80;;;15.00;76.20;;;;;;5027852;28;20013;-69
2021/04/11 09:06:31;;;;;;;3.63;0.88;;;14.90;76.40;;;;;;5024677;28;20384;-69
2021/04/11 09:09:28;;;;;;;2.15;0.95;;;14.90;77.10;;;;;;5021182;28;20029;-69
2021/04/11 09:12:13;;;;;;;1.83;0.40;;;14.90;77.60;;;;;;5029468;28;20045;-69
2021/04/11 09:14:58;;;;;;;4.65;0.60;;;14.90;76.00;;;;;;5023604;28;20048;-69
2021/04/11 09:18:09;;;;;;;4.28;1.15;;;14.80;76.60;;;;;;5026777;28;20044;-68
2021/04/11 09:21:02;;;;;;;2.72;1.55;;;14.80;76.10;;;;;;5022479;28;20046;-67
2021/04/11 09:23:36;;;;;;;3.63;1.42;;;14.80;75.90;;;;;;5027106;28;20053;-70
2021/04/11 09:26:25;;;;;;;4.75;1.42;;;14.80;76.60;;;;;;5029003;28;20083;-68
2021/04/11 09:29:22;;;;;;;2.15;0.40;;;14.70;76.80;;;;;;5030690;28;20103;-69
2021/04/11 09:32:20;;;;;;;2.22;0.40;;;14.70;75.90;;;;;;5019247;28;20091;-69
2021/04/11 09:35:08;;;;;;;2.15;0.30;;;14.70;76.60;;;;;;5025475;28;20025;-69
2021/04/11 09:38:12;;;;;;;1.02;0.30;;;14.60;77.00;;;;;;5026378;28;20456;-69
2021/04/11 09:41:04;;;;;;;3.92;0.73;;;14.60;77.40;;;;;;5046150;28;20077;-70
2021/04/11 09:43:40;;;;;;;5.10;0.40;;;14.60;77.80;;;;;;5024706;28;20044;-70
2021/04/11 09:46:44;;;;;;;7.72;0.32;;;14.60;77.50;;;;;;5025199;28;20111;-69
2021/04/11 09:49:39;;;;;;;1.70;0.55;;;14.60;77.20;;;;;;5011211;28;20406;-70
2021/04/11 09:52:14;;;;;;;;;;;14.60;77.70;;;;;;5016315;28;20024;-69
2021/04/11 09:54:46;;;;;;;2.42;0.57;;;14.60;77.30;;;;;;5030376;28;19909;-70
2021/04/11 09:57:50;;;;;;;1.00;0.50;;;14.50;77.60;;;;;;5029798;28;20033;-71
2021/04/11 10:00:51;;;;;;;4.05;0.98;;;14.50;77.30;;;;;;5028045;28;20104;-69
2021/04/11 10:03:32;;;;;;;1.85;0.68;;;14.50;78.30;;;;;;5033976;28;20029;-71
2021/04/11 10:06:14;;;;;;;4.10;0.40;;;14.40;78.20;;;;;;5040373;28;20033;-72
2021/04/11 10:08:41;;;;;;;3.30;1.58;;;14.40;78.40;;;;;;5040240;28;20034;-70
2021/04/11 10:11:38;;;;;;;3.58;0.70;;;14.30;79.70;;;;;;5032357;28;20034;-70
2021/04/11 10:14:29;;;;;;;4.40;1.90;;;14.30;79.10;;;;;;5007700;28;20041;-70
2021/04/11 10:17:07;;;;;;;3.95;1.80;;;14.30;79.20;;;;;;5025774;28;20490;-69
2021/04/11 10:19:40;;;;;;;7.10;1.90;;;14.30;79.80;;;;;;5032732;28;20072;-70
2021/04/11 10:22:37;;;;;;;4.25;1.20;;;14.30;79.90;;;;;;5031802;28;20038;-71
2021/04/11 10:25:16;;;;;;;4.57;0.40;;;14.30;79.80;;;;;;5033196;28;20104;-70
2021/04/11 10:28:28;;;;;;;3.25;0.32;;;14.30;79.80;;;;;;5034391;28;20021;-72
2021/04/11 10:31:01;;;;;;;2.22;0.40;;;14.20;81.00;;;;;;5020349;28;20041;-69
2021/04/11 10:33:54;;;;;;;1.30;0.27;;;14.20;80.40;;;;;;5036264;28;20028;-70
2021/04/11 10:36:29;;;;;;;2.08;0.52;;;14.10;81.20;;;;;;5031825;28;20115;-69
2021/04/11 10:39:05;;;;;;;3.47;0.47;;;14.20;81.50;;;;;;5033984;28;20029;-69
2021/04/11 10:41:51;;;;;;;1.90;0.40;;;14.10;80.70;;;;;;5033922;28;20020;-70
2021/04/11 10:44:42;;;;;;;4.28;0.20;;;14.00;82.10;;;;;;5035029;28;20072;-70
2021/04/11 10:47:37;;;;;;;2.22;0.40;;;14.00;82.30;;;;;;5026228;28;20032;-70
2021/04/11 10:50:10;;;;;;;1.05;0.30;;;14.00;82.70;;;;;;5048291;28;20036;-70
2021/04/11 10:52:50;;;;;;;3.33;0.30;;;14.00;83.50;;;;;;5039105;28;20048;-70
2021/04/11 10:55:26;;;;;;;1.00;0.13;;;14.00;83.20;;;;;;5031645;28;20032;-70
2021/04/11 10:57:59;;;;;;;0.65;0.20;;;14.00;83.10;;;;;;5033604;28;20111;-70
2021/04/11 11:00:41;;;;;;;1.45;0.20;;;13.90;83.10;;;;;;5033857;28;20037;-69
2021/04/11 11:03:43;;;;;;;0.88;0.20;;;13.90;82.70;;;;;;5030462;28;20029;-69
2021/04/11 11:06:19;;;;;;;4.47;0.60;;;13.90;82.50;;;;;;5013856;28;20381;-70
2021/04/11 11:09:02;;;;;;;0.45;0.17;;;13.90;82.80;;;;;;5012877;28;20022;-70
2021/04/11 11:12:05;;;;;;;2.60;0.30;;;13.80;82.20;;;;;;5013939;28;20033;-71
2021/04/11 11:14:43;;;;;;;3.00;0.30;;;13.80;82.30;;;;;;5034991;28;20143;-69
2021/04/11 11:17:28;;;;;;;3.10;0.32;;;13.80;81.70;;;;;;5049416;28;20037;-70
2021/04/11 11:20:21;;;;;;;3.25;0.32;;;13.90;82.00;;;;;;5040990;28;20096;-70
2021/04/11 11:23:00;;;;;;;3.40;0.20;;;13.90;82.20;;;;;;5032925;28;20052;-70
2021/04/11 11:25:33;;;;;;;0.73;0.30;;;13.80;82.70;;;;;;5035693;28;20064;-70
2021/04/11 11:28:08;;;;;;;2.05;0.25;;;13.80;82.10;;;;;;5033495;28;20375;-70
2021/04/11 11:31:11;;;;;;;2.08;0.28;;;13.90;81.90;;;;;;5031569;28;20084;-70
2021/04/11 11:33:52;;;;;;;1.52;0.20;;;13.80;82.60;;;;;;5033380;28;20021;-70
2021/04/11 11:36:32;;;;;;;1.02;0.20;;;13.70;82.60;;;;;;5020025;28;20037;-71
2021/04/11 11:39:17;;;;;;;3.22;0.50;;;13.60;83.60;;;;;;5024196;28;20527;-71
2021/04/11 11:42:19;;;;;;;;;;;13.60;83.50;;;;;;5032556;28;20026;-70
2021/04/11 11:45:11;;;;;;;3.35;0.60;;;13.70;83.20;;;;;;5020835;28;19909;-70
2021/04/11 11:47:58;;;;;;;3.08;0.20;;;13.70;82.70;;;;;;5032309;28;20036;-71
2021/04/11 11:50:53;;;;;;;2.53;0.47;;;13.60;83.80;;;;;;5040219;28;20112;-70
2021/04/11 11:53:29;;;;;;;2.33;0.32;;;13.60;83.40;;;;;;5027888;28;20125;-70
2021/04/11 11:55:57;;;;;;;1.52;0.35;;;13.60;83.10;;;;;;5031363;28;20076;-70
2021/04/11 11:58:35;;;;;;;3.92;0.30;;;13.60;83.30;;;;;;5033157;28;20057;-70
2021/04/11 12:01:20;;;;;;;1.30;0.20;;;13.60;83.40;;;;;;5031917;28;20025;-70
2021/04/11 12:03:48;;;;;;;2.28;0.30;;;13.60;83.70;;;;;;5032536;28;20032;-70
2021/04/11 12:06:35;;;;;;;2.25;0.35;;;13.50;84.40;;;;;;5026196;28;20434;-69
2021/04/11 12:09:23;;;;;;;1.40;0.20;;;13.60;83.30;;;;;;5035661;28;20022;-70
2021/04/11 12:12:00;;;;;;;2.08;0.10;;;13.50;83.80;;;;;;5029122;28;20351;-71
2021/04/11 12:14:54;;;;;;;1.15;0.32;;;13.50;84.40;;;;;;5025898;28;20124;-71
2021/04/11 12:17:21;;;;;;;2.70;0.25;;;13.50;84.50;;;;;;5039293;28;20032;-71
2021/04/11 12:20:05;;;;;;;3.50;0.30;;;13.50;84.70;;;;;;5029701;28;20112;-70
2021/04/11 12:23:00;;;;;;;1.20;0.52;;;13.50;84.60;;;;;;5030317;28;20049;-70
2021/04/11 12:25:31;;;;;;;2.95;0.28;;;13.50;84.60;;;;;;5032784;28;20048;-70
2021/04/11 12:28:29;;;;;;;2.00;0.40;;;13.50;84.70;;;;;;5031165;28;20123;-70
2021/04/11 12:30:57;;;;;;;2.22;0.70;;;13.50;84.80;;;;;;5027862;28;20041;-70
2021/04/11 12:33:44;;;;;;;1.45;0.20;;;13.40;84.80;;;;;;5021145;28;20125;-70
2021/04/11 12:36:21;;;;;;;3.67;0.77;;;13.30;85.10;;;;;;5024579;28;20029;-70
2021/04/11 12:38:54;;;;;;;3.83;0.77;;;13.40;85.70;;;;;;5030649;28;20018;-71
2021/04/11 12:41:41;;;;;;;2.97;0.40;;;13.40;85.50;;;;;;5038378;28;20027;-70
2021/04/11 12:44:25;;;;;;;1.65;0.30;;;13.20;85.70;;;;;;5031381;28;20064;-70
2021/04/11 12:47:19;;;;;;;2.67;0.28;;;13.20;85.90;;;;;;5031418;28;20029;-70
2021/04/11 12:49:50;;;;;;;2.40;0.25;;;13.30;85.50;;;;;;5041072;28;20163;-70
2021/04/11 12:52:20;;;;;;;1.98;0.20;;;13.20;86.30;;;;;;5029328;28;20355;-71
2021/04/11 12:55:05;;;;;;;1.25;0.35;;;13.30;86.30;;;;;;5036333;28;20465;-71
2021/04/11 12:57:53;;;;;;;2.83;0.40;;;13.20;86.90;;;;;;5012030;28;20037;-71
2021/04/11 13:01:04;;;;;;;2.33;0.45;;;13.20;86.40;;;;;;5023804;28;20037;-70
2021/04/11 13:03:53;;;;;;;5.13;0.30;;;13.30;86.80;;;;;;5023812;28;20110;-70
2021/04/11 13:06:52;;;;;;;2.10;0.43;;;13.20;86.30;;;;;;5045520;28;20499;-70
2021/04/11 13:10:14;;;;;;;1.42;0.17;;;13.10;87.10;;;;;;5042684;28;20449;-70
2021/04/11 13:13:02;;;;;;;3.60;0.93;;;13.10;88.20;;;;;;5014254;28;20038;-71
2021/04/11 13:15:46;;;;;;;1.85;0.17;;;13.10;88.20;;;;;;5032514;28;20060;-71
2021/04/11 13:18:21;;;;;;;1.75;0.20;;;13.10;87.80;;;;;;5039367;28;20029;-71
2021/04/11 13:20:57;;;;;;;1.50;0.20;;;13.10;88.20;;;;;;5030815;28;20063;-70
2021/04/11 13:23:35;;;;;;;1.23;0.40;;;13.10;88.60;;;;;;5031713;28;20146;-69
2021/04/11 13:26:13;;;;;;;1.35;0.22;;;13.10;88.00;;;;;;5019410;28;20025;-71
2021/04/11 13:29:05;;;;;;;2.10;0.30;;;13.10;89.20;;;;;;5035424;28;20060;-71
2021/04/11 13:31:41;;;;;;;1.75;0.43;;;13.10;89.20;;;;;;5027167;28;20053;-71
2021/04/11 13:34:16;;;;;;;1.52;0.20;;;13.10;89.80;;;;;;5053221;28;20021;-70
2021/04/11 13:36:49;;;;;;;2.25;0.20;;;13.00;88.80;;;;;;5036358;28;20416;-70
2021/04/11 13:39:37;;;;;;;2.40;0.52;;;13.00;89.40;;;;;;5034457;28;20097;-70
2021/04/11 13:42:34;;;;;;;4.18;0.30;;;13.00;89.70;;;;;;5032372;28;20068;-71
2021/04/11 13:45:07;;;;;;;2.22;0.30;;;12.90;90.00;;;;;;5031211;28;20033;-71
2021/04/11 13:48:10;;;;;;;1.38;0.30;;;12.90;89.30;;;;;;5037961;28;20037;-71
2021/04/11 13:51:02;;;;;;;3.50;0.43;;;12.90;89.30;;;;;;5034212;28;20053;-70
2021/04/11 13:53:53;;;;;;;1.65;0.25;;;12.90;88.70;;;;;;5038267;28;20435;-70
2021/04/11 13:56:38;;;;;;;2.65;0.22;;;12.90;88.90;;;;;;5026964;28;20517;-70
2021/04/11 13:59:37;;;;;;;1.30;0.43;;;12.80;89.30;;;;;;5032904;28;20025;-70
2021/04/11 14:02:31;;;;;;;2.03;0.30;;;12.80;89.70;;;;;;5015967;28;20045;-70